sensor_id;sensor_type;location;lat;lon;timestamp;temperature;humidity
71188;DHT22;58893;53.130;8.158;2023-04-25T00:02:02;11.80;83.40
71188;DHT22;58893;53.130;8.158;2023-04-25T00:04:28;11.80;82.60
71188;DHT22;58893;53.130;8.158;2023-04-25T00:06:55;11.80;82.70
71188;DHT22;58893;53.130;8.158;2023-04-25T00:09:24;11.80;82.80
71188;DHT22;58893;53.130;8.158;2023-04-25T00:11:50;11.70;82.10
71188;DHT22;58893;53.130;8.158;2023-04-25T00:14:16;11.70;81.90
71188;DHT22;58893;53.130;8.158;2023-04-25T00:16:42;11.70;81.80
71188;DHT22;58893;53.130;8.158;2023-04-25T00:19:09;11.70;81.60
71188;DHT22;58893;53.130;8.158;2023-04-25T00:21:35;11.70;81.50
71188;DHT22;58893;53.130;8.158;2023-04-25T00:24:03;11.70;81.50
71188;DHT22;58893;53.130;8.158;2023-04-25T00:26:29;11.70;81.80
71188;DHT22;58893;53.130;8.158;2023-04-25T00:28:54;11.70;81.80
71188;DHT22;58893;53.130;8.158;2023-04-25T00:31:21;11.70;81.40
71188;DHT22;58893;53.130;8.158;2023-04-25T00:33:47;11.70;80.80
71188;DHT22;58893;53.130;8.158;2023-04-25T00:36:13;11.60;80.60
71188;DHT22;58893;53.130;8.158;2023-04-25T00:38:39;11.70;80.70
71188;DHT22;58893;53.130;8.158;2023-04-25T00:41:07;11.60;80.50
71188;DHT22;58893;53.130;8.158;2023-04-25T00:43:33;11.60;80.60
71188;DHT22;58893;53.130;8.158;2023-04-25T00:46:00;11.60;80.80
71188;DHT22;58893;53.130;8.158;2023-04-25T00:48:26;11.60;80.70
71188;DHT22;58893;53.130;8.158;2023-04-25T00:50:54;11.60;80.30
71188;DHT22;58893;53.130;8.158;2023-04-25T00:53:21;11.60;79.90
71188;DHT22;58893;53.130;8.158;2023-04-25T00:55:47;11.60;79.60
71188;DHT22;58893;53.130;8.158;2023-04-25T00:58:13;11.60;79.70
71188;DHT22;58893;53.130;8.158;2023-04-25T01:00:40;11.60;79.70
71188;DHT22;58893;53.130;8.158;2023-04-25T01:03:06;11.60;79.50
71188;DHT22;58893;53.130;8.158;2023-04-25T01:05:35;11.60;79.30
71188;DHT22;58893;53.130;8.158;2023-04-25T01:08:01;11.50;78.90
71188;DHT22;58893;53.130;8.158;2023-04-25T01:10:27;11.60;78.80
71188;DHT22;58893;53.130;8.158;2023-04-25T01:12:52;11.60;78.50
71188;DHT22;58893;53.130;8.158;2023-04-25T01:15:18;11.50;78.10
71188;DHT22;58893;53.130;8.158;2023-04-25T01:17:44;11.50;77.80
71188;DHT22;58893;53.130;8.158;2023-04-25T01:20:10;11.50;77.80
71188;DHT22;58893;53.130;8.158;2023-04-25T01:22:36;11.50;77.80
71188;DHT22;58893;53.130;8.158;2023-04-25T01:25:02;11.50;77.90
71188;DHT22;58893;53.130;8.158;2023-04-25T01:27:28;11.50;78.00
71188;DHT22;58893;53.130;8.158;2023-04-25T01:29:55;11.50;78.20
71188;DHT22;58893;53.130;8.158;2023-04-25T01:32:22;11.50;78.20
71188;DHT22;58893;53.130;8.158;2023-04-25T01:34:49;11.50;78.20
71188;DHT22;58893;53.130;8.158;2023-04-25T01:37:15;11.50;78.30
71188;DHT22;58893;53.130;8.158;2023-04-25T01:39:41;11.50;78.10
71188;DHT22;58893;53.130;8.158;2023-04-25T01:42:07;11.50;78.20
71188;DHT22;58893;53.130;8.158;2023-04-25T01:44:33;11.50;78.00
71188;DHT22;58893;53.130;8.158;2023-04-25T01:46:59;11.50;77.80
71188;DHT22;58893;53.130;8.158;2023-04-25T01:49:24;11.50;77.90
71188;DHT22;58893;53.130;8.158;2023-04-25T01:51:50;11.50;77.90
71188;DHT22;58893;53.130;8.158;2023-04-25T01:54:17;11.50;78.00
71188;DHT22;58893;53.130;8.158;2023-04-25T01:56:49;11.40;78.00
71188;DHT22;58893;53.130;8.158;2023-04-25T01:59:15;11.40;78.00
71188;DHT22;58893;53.130;8.158;2023-04-25T02:01:40;11.40;77.60
71188;DHT22;58893;53.130;8.158;2023-04-25T02:04:06;11.40;77.40
71188;DHT22;58893;53.130;8.158;2023-04-25T02:06:31;11.40;77.00
71188;DHT22;58893;53.130;8.158;2023-04-25T02:08:57;11.40;76.80
71188;DHT22;58893;53.130;8.158;2023-04-25T02:11:23;11.40;76.60
71188;DHT22;58893;53.130;8.158;2023-04-25T02:13:48;11.40;76.10
71188;DHT22;58893;53.130;8.158;2023-04-25T02:16:14;11.40;75.90
71188;DHT22;58893;53.130;8.158;2023-04-25T02:18:40;11.30;75.40
71188;DHT22;58893;53.130;8.158;2023-04-25T02:21:05;11.40;75.10
71188;DHT22;58893;53.130;8.158;2023-04-25T02:23:31;11.30;74.70
71188;DHT22;58893;53.130;8.158;2023-04-25T02:25:57;11.30;74.30
71188;DHT22;58893;53.130;8.158;2023-04-25T02:28:24;11.30;74.20
71188;DHT22;58893;53.130;8.158;2023-04-25T02:30:50;11.30;74.20
71188;DHT22;58893;53.130;8.158;2023-04-25T02:33:15;11.30;74.10
71188;DHT22;58893;53.130;8.158;2023-04-25T02:35:42;11.30;74.10
71188;DHT22;58893;53.130;8.158;2023-04-25T02:38:08;11.30;74.20
71188;DHT22;58893;53.130;8.158;2023-04-25T02:40:33;11.30;74.10
71188;DHT22;58893;53.130;8.158;2023-04-25T02:42:59;11.30;74.10
71188;DHT22;58893;53.130;8.158;2023-04-25T02:45:25;11.30;74.10
71188;DHT22;58893;53.130;8.158;2023-04-25T02:47:50;11.20;74.20
71188;DHT22;58893;53.130;8.158;2023-04-25T02:50:16;11.30;74.00
71188;DHT22;58893;53.130;8.158;2023-04-25T02:52:43;11.20;73.80
71188;DHT22;58893;53.130;8.158;2023-04-25T02:55:08;11.20;73.40
71188;DHT22;58893;53.130;8.158;2023-04-25T02:57:34;11.20;73.10
71188;DHT22;58893;53.130;8.158;2023-04-25T03:00:00;11.20;73.10
71188;DHT22;58893;53.130;8.158;2023-04-25T03:02:25;11.20;72.80
71188;DHT22;58893;53.130;8.158;2023-04-25T03:04:51;11.20;72.60
71188;DHT22;58893;53.130;8.158;2023-04-25T03:07:17;11.20;73.10
71188;DHT22;58893;53.130;8.158;2023-04-25T03:09:42;11.20;71.90
71188;DHT22;58893;53.130;8.158;2023-04-25T03:12:08;11.20;71.70
71188;DHT22;58893;53.130;8.158;2023-04-25T03:14:33;11.20;71.70
71188;DHT22;58893;53.130;8.158;2023-04-25T03:16:59;11.20;71.70
71188;DHT22;58893;53.130;8.158;2023-04-25T03:19:24;11.10;71.70
71188;DHT22;58893;53.130;8.158;2023-04-25T03:21:50;11.10;71.70
71188;DHT22;58893;53.130;8.158;2023-04-25T03:24:16;11.10;71.60
71188;DHT22;58893;53.130;8.158;2023-04-25T03:26:41;11.10;71.60
71188;DHT22;58893;53.130;8.158;2023-04-25T03:29:07;11.10;71.50
71188;DHT22;58893;53.130;8.158;2023-04-25T03:31:32;11.00;71.40
71188;DHT22;58893;53.130;8.158;2023-04-25T03:33:58;11.00;71.20
71188;DHT22;58893;53.130;8.158;2023-04-25T03:36:24;11.00;71.00
71188;DHT22;58893;53.130;8.158;2023-04-25T03:38:49;11.00;70.90
71188;DHT22;58893;53.130;8.158;2023-04-25T03:41:15;11.00;70.80
71188;DHT22;58893;53.130;8.158;2023-04-25T03:43:40;11.00;70.70
71188;DHT22;58893;53.130;8.158;2023-04-25T03:46:06;10.90;70.20
71188;DHT22;58893;53.130;8.158;2023-04-25T03:48:32;10.90;69.90
71188;DHT22;58893;53.130;8.158;2023-04-25T03:50:57;10.90;69.80
71188;DHT22;58893;53.130;8.158;2023-04-25T03:53:23;10.90;69.80
71188;DHT22;58893;53.130;8.158;2023-04-25T03:55:48;10.90;69.90
71188;DHT22;58893;53.130;8.158;2023-04-25T03:58:14;10.90;69.80
71188;DHT22;58893;53.130;8.158;2023-04-25T04:00:40;10.90;69.80
71188;DHT22;58893;53.130;8.158;2023-04-25T04:03:06;10.80;69.20
71188;DHT22;58893;53.130;8.158;2023-04-25T04:05:31;10.80;68.90
71188;DHT22;58893;53.130;8.158;2023-04-25T04:07:58;10.80;68.80
71188;DHT22;58893;53.130;8.158;2023-04-25T04:10:23;10.80;68.20
71188;DHT22;58893;53.130;8.158;2023-04-25T04:12:49;10.80;67.70
71188;DHT22;58893;53.130;8.158;2023-04-25T04:15:14;10.80;67.70
71188;DHT22;58893;53.130;8.158;2023-04-25T04:17:40;10.80;67.70
71188;DHT22;58893;53.130;8.158;2023-04-25T04:20:07;10.80;67.50
71188;DHT22;58893;53.130;8.158;2023-04-25T04:22:33;10.80;67.30
71188;DHT22;58893;53.130;8.158;2023-04-25T04:24:59;10.80;67.10
71188;DHT22;58893;53.130;8.158;2023-04-25T04:27:24;10.80;66.60
71188;DHT22;58893;53.130;8.158;2023-04-25T04:29:50;10.80;66.70
71188;DHT22;58893;53.130;8.158;2023-04-25T04:32:17;10.70;66.70
71188;DHT22;58893;53.130;8.158;2023-04-25T04:34:43;10.70;66.80
71188;DHT22;58893;53.130;8.158;2023-04-25T04:37:10;10.70;66.70
71188;DHT22;58893;53.130;8.158;2023-04-25T04:39:36;10.70;66.70
71188;DHT22;58893;53.130;8.158;2023-04-25T04:42:02;10.70;66.70
71188;DHT22;58893;53.130;8.158;2023-04-25T04:44:29;10.70;67.10
71188;DHT22;58893;53.130;8.158;2023-04-25T04:46:54;10.70;67.30
71188;DHT22;58893;53.130;8.158;2023-04-25T04:49:21;10.70;67.50
71188;DHT22;58893;53.130;8.158;2023-04-25T04:51:46;10.70;67.50
71188;DHT22;58893;53.130;8.158;2023-04-25T04:54:13;10.70;67.40
71188;DHT22;58893;53.130;8.158;2023-04-25T04:56:38;10.70;67.50
71188;DHT22;58893;53.130;8.158;2023-04-25T04:59:04;10.70;67.40
71188;DHT22;58893;53.130;8.158;2023-04-25T05:01:30;10.70;67.20
71188;DHT22;58893;53.130;8.158;2023-04-25T05:03:56;10.70;67.40
71188;DHT22;58893;53.130;8.158;2023-04-25T05:06:26;10.70;67.50
71188;DHT22;58893;53.130;8.158;2023-04-25T05:08:52;10.70;67.60
71188;DHT22;58893;53.130;8.158;2023-04-25T05:11:18;10.80;67.80
71188;DHT22;58893;53.130;8.158;2023-04-25T05:13:44;10.80;67.80
71188;DHT22;58893;53.130;8.158;2023-04-25T05:16:11;10.80;67.90
71188;DHT22;58893;53.130;8.158;2023-04-25T05:18:37;10.80;68.20
71188;DHT22;58893;53.130;8.158;2023-04-25T05:21:03;10.90;68.20
71188;DHT22;58893;53.130;8.158;2023-04-25T05:23:28;10.90;68.10
71188;DHT22;58893;53.130;8.158;2023-04-25T05:25:55;11.00;68.00
71188;DHT22;58893;53.130;8.158;2023-04-25T05:28:21;11.00;68.00
71188;DHT22;58893;53.130;8.158;2023-04-25T05:30:47;11.10;67.90
71188;DHT22;58893;53.130;8.158;2023-04-25T05:33:12;11.20;67.60
71188;DHT22;58893;53.130;8.158;2023-04-25T05:35:38;11.20;67.40
71188;DHT22;58893;53.130;8.158;2023-04-25T05:38:04;11.30;67.30
71188;DHT22;58893;53.130;8.158;2023-04-25T05:40:29;11.40;67.20
71188;DHT22;58893;53.130;8.158;2023-04-25T05:42:55;11.50;67.20
71188;DHT22;58893;53.130;8.158;2023-04-25T05:45:20;11.60;67.10
71188;DHT22;58893;53.130;8.158;2023-04-25T05:47:46;11.70;67.10
71188;DHT22;58893;53.130;8.158;2023-04-25T05:50:11;11.80;66.70
71188;DHT22;58893;53.130;8.158;2023-04-25T05:52:37;11.90;65.40
71188;DHT22;58893;53.130;8.158;2023-04-25T05:55:04;11.90;64.90
71188;DHT22;58893;53.130;8.158;2023-04-25T05:57:30;11.90;65.10
71188;DHT22;58893;53.130;8.158;2023-04-25T05:59:55;11.90;65.50
71188;DHT22;58893;53.130;8.158;2023-04-25T06:02:21;11.90;64.70
71188;DHT22;58893;53.130;8.158;2023-04-25T06:04:49;11.80;64.50
71188;DHT22;58893;53.130;8.158;2023-04-25T06:07:15;11.80;64.50
71188;DHT22;58893;53.130;8.158;2023-04-25T06:09:40;11.70;64.60
71188;DHT22;58893;53.130;8.158;2023-04-25T06:12:06;11.70;64.70
71188;DHT22;58893;53.130;8.158;2023-04-25T06:14:33;11.60;64.80
71188;DHT22;58893;53.130;8.158;2023-04-25T06:16:59;11.60;65.00
71188;DHT22;58893;53.130;8.158;2023-04-25T06:19:24;11.50;65.10
71188;DHT22;58893;53.130;8.158;2023-04-25T06:21:50;11.50;65.50
71188;DHT22;58893;53.130;8.158;2023-04-25T06:24:15;11.50;65.60
71188;DHT22;58893;53.130;8.158;2023-04-25T06:26:41;11.50;66.00
71188;DHT22;58893;53.130;8.158;2023-04-25T06:29:06;11.50;66.00
71188;DHT22;58893;53.130;8.158;2023-04-25T06:31:32;11.50;66.30
71188;DHT22;58893;53.130;8.158;2023-04-25T06:33:59;11.40;66.70
71188;DHT22;58893;53.130;8.158;2023-04-25T06:36:24;11.40;67.00
71188;DHT22;58893;53.130;8.158;2023-04-25T06:38:51;11.50;67.50
71188;DHT22;58893;53.130;8.158;2023-04-25T06:41:18;11.60;67.60
71188;DHT22;58893;53.130;8.158;2023-04-25T06:43:44;11.60;67.20
71188;DHT22;58893;53.130;8.158;2023-04-25T06:46:10;11.70;67.00
71188;DHT22;58893;53.130;8.158;2023-04-25T06:48:35;11.80;65.90
71188;DHT22;58893;53.130;8.158;2023-04-25T06:51:01;11.90;65.50
71188;DHT22;58893;53.130;8.158;2023-04-25T06:53:26;12.10;65.90
71188;DHT22;58893;53.130;8.158;2023-04-25T06:55:52;12.10;65.30
71188;DHT22;58893;53.130;8.158;2023-04-25T06:58:18;12.30;64.60
71188;DHT22;58893;53.130;8.158;2023-04-25T07:00:43;12.40;64.10
71188;DHT22;58893;53.130;8.158;2023-04-25T07:03:09;12.40;62.60
71188;DHT22;58893;53.130;8.158;2023-04-25T07:05:35;12.50;62.00
71188;DHT22;58893;53.130;8.158;2023-04-25T07:08:01;12.60;61.70
71188;DHT22;58893;53.130;8.158;2023-04-25T07:10:26;12.70;61.20
71188;DHT22;58893;53.130;8.158;2023-04-25T07:12:52;12.70;60.90
71188;DHT22;58893;53.130;8.158;2023-04-25T07:15:18;12.80;61.20
71188;DHT22;58893;53.130;8.158;2023-04-25T07:17:43;12.80;61.60
71188;DHT22;58893;53.130;8.158;2023-04-25T07:20:09;12.90;61.70
71188;DHT22;58893;53.130;8.158;2023-04-25T07:22:35;13.00;61.70
71188;DHT22;58893;53.130;8.158;2023-04-25T07:25:01;13.00;60.90
71188;DHT22;58893;53.130;8.158;2023-04-25T07:27:27;13.10;60.40
71188;DHT22;58893;53.130;8.158;2023-04-25T07:29:52;13.10;59.60
71188;DHT22;58893;53.130;8.158;2023-04-25T07:32:19;13.00;58.50
71188;DHT22;58893;53.130;8.158;2023-04-25T07:34:45;13.00;58.80
71188;DHT22;58893;53.130;8.158;2023-04-25T07:37:10;12.90;59.10
71188;DHT22;58893;53.130;8.158;2023-04-25T07:39:36;12.90;59.20
71188;DHT22;58893;53.130;8.158;2023-04-25T07:42:03;12.70;58.50
71188;DHT22;58893;53.130;8.158;2023-04-25T07:44:29;12.70;58.80
71188;DHT22;58893;53.130;8.158;2023-04-25T07:47:04;12.60;57.30
71188;DHT22;58893;53.130;8.158;2023-04-25T07:49:32;12.40;55.10
71188;DHT22;58893;53.130;8.158;2023-04-25T07:51:59;12.40;55.50
71188;DHT22;58893;53.130;8.158;2023-04-25T07:54:24;12.30;55.80
71188;DHT22;58893;53.130;8.158;2023-04-25T07:56:50;12.20;56.60
71188;DHT22;58893;53.130;8.158;2023-04-25T07:59:16;12.20;57.10
71188;DHT22;58893;53.130;8.158;2023-04-25T08:01:41;12.10;57.90
71188;DHT22;58893;53.130;8.158;2023-04-25T08:04:07;12.00;58.80
71188;DHT22;58893;53.130;8.158;2023-04-25T08:06:33;11.90;59.50
71188;DHT22;58893;53.130;8.158;2023-04-25T08:08:58;11.90;60.10
71188;DHT22;58893;53.130;8.158;2023-04-25T08:11:24;11.90;60.70
71188;DHT22;58893;53.130;8.158;2023-04-25T08:13:50;11.80;60.90
71188;DHT22;58893;53.130;8.158;2023-04-25T08:16:16;11.90;60.80
71188;DHT22;58893;53.130;8.158;2023-04-25T08:18:42;11.90;60.20
71188;DHT22;58893;53.130;8.158;2023-04-25T08:21:08;11.90;60.10
71188;DHT22;58893;53.130;8.158;2023-04-25T08:23:36;12.00;60.60
71188;DHT22;58893;53.130;8.158;2023-04-25T08:26:02;12.20;60.20
71188;DHT22;58893;53.130;8.158;2023-04-25T08:28:28;12.30;59.30
71188;DHT22;58893;53.130;8.158;2023-04-25T08:30:54;12.40;58.80
71188;DHT22;58893;53.130;8.158;2023-04-25T08:33:19;12.50;58.50
71188;DHT22;58893;53.130;8.158;2023-04-25T08:35:45;12.50;58.50
71188;DHT22;58893;53.130;8.158;2023-04-25T08:38:11;12.60;58.60
71188;DHT22;58893;53.130;8.158;2023-04-25T08:40:38;12.60;58.60
71188;DHT22;58893;53.130;8.158;2023-04-25T08:43:06;12.60;58.70
71188;DHT22;58893;53.130;8.158;2023-04-25T08:45:39;12.60;59.60
71188;DHT22;58893;53.130;8.158;2023-04-25T08:48:07;12.50;60.50
71188;DHT22;58893;53.130;8.158;2023-04-25T08:50:36;12.40;61.50
71188;DHT22;58893;53.130;8.158;2023-04-25T08:53:04;12.40;61.40
71188;DHT22;58893;53.130;8.158;2023-04-25T08:55:33;12.30;62.40
71188;DHT22;58893;53.130;8.158;2023-04-25T08:57:59;12.30;63.60
71188;DHT22;58893;53.130;8.158;2023-04-25T09:00:26;12.40;63.80
71188;DHT22;58893;53.130;8.158;2023-04-25T09:02:52;12.40;64.30
71188;DHT22;58893;53.130;8.158;2023-04-25T09:05:19;12.40;64.40
71188;DHT22;58893;53.130;8.158;2023-04-25T09:07:44;12.40;64.50
71188;DHT22;58893;53.130;8.158;2023-04-25T09:10:10;12.40;61.40
71188;DHT22;58893;53.130;8.158;2023-04-25T09:12:36;12.40;60.40
71188;DHT22;58893;53.130;8.158;2023-04-25T09:15:10;12.40;60.00
71188;DHT22;58893;53.130;8.158;2023-04-25T09:17:36;12.50;60.40
71188;DHT22;58893;53.130;8.158;2023-04-25T09:20:14;12.50;59.90
71188;DHT22;58893;53.130;8.158;2023-04-25T09:22:40;12.50;59.60
71188;DHT22;58893;53.130;8.158;2023-04-25T09:25:10;12.50;59.60
71188;DHT22;58893;53.130;8.158;2023-04-25T09:27:52;12.60;59.80
71188;DHT22;58893;53.130;8.158;2023-04-25T09:30:18;12.70;59.10
71188;DHT22;58893;53.130;8.158;2023-04-25T09:32:56;12.70;58.20
71188;DHT22;58893;53.130;8.158;2023-04-25T09:35:26;12.70;56.20
71188;DHT22;58893;53.130;8.158;2023-04-25T09:37:52;12.70;57.60
71188;DHT22;58893;53.130;8.158;2023-04-25T09:40:18;12.60;59.60
71188;DHT22;58893;53.130;8.158;2023-04-25T09:42:43;12.50;61.60
71188;DHT22;58893;53.130;8.158;2023-04-25T09:45:12;12.40;62.30
71188;DHT22;58893;53.130;8.158;2023-04-25T09:47:40;12.30;63.10
71188;DHT22;58893;53.130;8.158;2023-04-25T09:50:14;12.20;63.20
71188;DHT22;58893;53.130;8.158;2023-04-25T09:52:40;12.10;63.20
71188;DHT22;58893;53.130;8.158;2023-04-25T09:55:06;12.00;63.80
71188;DHT22;58893;53.130;8.158;2023-04-25T09:57:33;11.90;64.80
71188;DHT22;58893;53.130;8.158;2023-04-25T10:00:00;11.90;65.70
71188;DHT22;58893;53.130;8.158;2023-04-25T10:02:27;11.80;66.70
71188;DHT22;58893;53.130;8.158;2023-04-25T10:04:54;11.80;66.90
71188;DHT22;58893;53.130;8.158;2023-04-25T10:07:25;11.90;67.10
71188;DHT22;58893;53.130;8.158;2023-04-25T10:10:00;11.90;67.10
71188;DHT22;58893;53.130;8.158;2023-04-25T10:12:28;11.90;66.90
71188;DHT22;58893;53.130;8.158;2023-04-25T10:14:54;11.90;67.50
71188;DHT22;58893;53.130;8.158;2023-04-25T10:17:20;12.00;67.10
71188;DHT22;58893;53.130;8.158;2023-04-25T10:19:47;12.10;66.70
71188;DHT22;58893;53.130;8.158;2023-04-25T10:22:18;12.10;64.00
71188;DHT22;58893;53.130;8.158;2023-04-25T10:24:46;12.20;63.20
71188;DHT22;58893;53.130;8.158;2023-04-25T10:27:12;12.30;63.00
71188;DHT22;58893;53.130;8.158;2023-04-25T10:29:38;12.30;62.10
71188;DHT22;58893;53.130;8.158;2023-04-25T10:32:04;12.40;61.70
71188;DHT22;58893;53.130;8.158;2023-04-25T10:34:43;12.50;62.00
71188;DHT22;58893;53.130;8.158;2023-04-25T10:37:12;12.50;60.20
71188;DHT22;58893;53.130;8.158;2023-04-25T10:39:42;12.50;59.10
71188;DHT22;58893;53.130;8.158;2023-04-25T10:42:09;12.60;58.60
71188;DHT22;58893;53.130;8.158;2023-04-25T10:44:37;12.60;58.90
71188;DHT22;58893;53.130;8.158;2023-04-25T10:47:02;12.60;59.20
71188;DHT22;58893;53.130;8.158;2023-04-25T10:49:37;12.60;57.00
71188;DHT22;58893;53.130;8.158;2023-04-25T10:52:25;12.50;55.40
71188;DHT22;58893;53.130;8.158;2023-04-25T10:54:56;12.50;55.00
71188;DHT22;58893;53.130;8.158;2023-04-25T10:57:29;12.50;55.30
71188;DHT22;58893;53.130;8.158;2023-04-25T11:00:18;12.50;54.60
71188;DHT22;58893;53.130;8.158;2023-04-25T11:05:31;12.50;55.00
71188;DHT22;58893;53.130;8.158;2023-04-25T11:07:58;12.50;55.60
71188;DHT22;58893;53.130;8.158;2023-04-25T11:10:27;12.60;56.50
71188;DHT22;58893;53.130;8.158;2023-04-25T11:12:53;12.70;56.50
71188;DHT22;58893;53.130;8.158;2023-04-25T11:15:18;12.80;56.80
71188;DHT22;58893;53.130;8.158;2023-04-25T11:17:44;12.90;55.20
71188;DHT22;58893;53.130;8.158;2023-04-25T11:20:12;13.00;53.90
71188;DHT22;58893;53.130;8.158;2023-04-25T11:22:40;13.10;54.40
71188;DHT22;58893;53.130;8.158;2023-04-25T11:25:10;13.30;53.40
71188;DHT22;58893;53.130;8.158;2023-04-25T11:27:52;13.30;52.60
71188;DHT22;58893;53.130;8.158;2023-04-25T11:30:18;13.30;52.10
71188;DHT22;58893;53.130;8.158;2023-04-25T11:32:44;13.40;52.10
71188;DHT22;58893;53.130;8.158;2023-04-25T11:35:10;13.40;52.90
71188;DHT22;58893;53.130;8.158;2023-04-25T11:37:38;13.40;53.20
71188;DHT22;58893;53.130;8.158;2023-04-25T11:40:05;13.30;53.60
71188;DHT22;58893;53.130;8.158;2023-04-25T11:42:37;13.30;54.00
71188;DHT22;58893;53.130;8.158;2023-04-25T11:45:05;13.20;53.50
71188;DHT22;58893;53.130;8.158;2023-04-25T11:47:31;13.20;53.60
71188;DHT22;58893;53.130;8.158;2023-04-25T11:50:04;13.20;53.60
71188;DHT22;58893;53.130;8.158;2023-04-25T11:55:08;13.20;53.10
71188;DHT22;58893;53.130;8.158;2023-04-25T11:57:35;13.30;53.10
71188;DHT22;58893;53.130;8.158;2023-04-25T12:00:14;13.40;52.90
71188;DHT22;58893;53.130;8.158;2023-04-25T12:02:41;13.50;53.20
71188;DHT22;58893;53.130;8.158;2023-04-25T12:05:08;13.60;52.70
71188;DHT22;58893;53.130;8.158;2023-04-25T12:07:35;13.60;50.80
71188;DHT22;58893;53.130;8.158;2023-04-25T12:12:34;13.80;51.10
71188;DHT22;58893;53.130;8.158;2023-04-25T12:15:13;13.90;50.90
71188;DHT22;58893;53.130;8.158;2023-04-25T12:17:41;14.00;50.20
71188;DHT22;58893;53.130;8.158;2023-04-25T12:20:09;14.10;49.90
71188;DHT22;58893;53.130;8.158;2023-04-25T12:22:35;14.10;48.10
71188;DHT22;58893;53.130;8.158;2023-04-25T12:25:02;14.10;46.90
71188;DHT22;58893;53.130;8.158;2023-04-25T12:27:31;14.00;48.00
71188;DHT22;58893;53.130;8.158;2023-04-25T12:29:57;14.00;47.80
71188;DHT22;58893;53.130;8.158;2023-04-25T12:32:23;14.00;46.90
71188;DHT22;58893;53.130;8.158;2023-04-25T12:34:48;14.00;45.70
71188;DHT22;58893;53.130;8.158;2023-04-25T12:37:14;14.00;46.00
71188;DHT22;58893;53.130;8.158;2023-04-25T12:39:41;14.00;46.40
71188;DHT22;58893;53.130;8.158;2023-04-25T12:42:06;14.10;47.00
71188;DHT22;58893;53.130;8.158;2023-04-25T12:44:39;14.10;47.10
71188;DHT22;58893;53.130;8.158;2023-04-25T12:47:05;14.10;48.60
71188;DHT22;58893;53.130;8.158;2023-04-25T12:49:31;14.20;49.20
71188;DHT22;58893;53.130;8.158;2023-04-25T12:51:57;14.30;48.00
71188;DHT22;58893;53.130;8.158;2023-04-25T12:54:23;14.30;44.90
71188;DHT22;58893;53.130;8.158;2023-04-25T12:56:49;14.30;42.90
71188;DHT22;58893;53.130;8.158;2023-04-25T12:59:16;14.30;43.00
71188;DHT22;58893;53.130;8.158;2023-04-25T13:01:41;14.20;43.70
71188;DHT22;58893;53.130;8.158;2023-04-25T13:04:08;14.10;44.20
71188;DHT22;58893;53.130;8.158;2023-04-25T13:06:33;14.10;46.40
71188;DHT22;58893;53.130;8.158;2023-04-25T13:08:59;14.00;48.00
71188;DHT22;58893;53.130;8.158;2023-04-25T13:11:24;13.90;49.00
71188;DHT22;58893;53.130;8.158;2023-04-25T13:13:50;13.80;49.70
71188;DHT22;58893;53.130;8.158;2023-04-25T13:16:16;13.80;51.00
71188;DHT22;58893;53.130;8.158;2023-04-25T13:18:42;13.80;50.40
71188;DHT22;58893;53.130;8.158;2023-04-25T13:21:09;13.80;50.70
71188;DHT22;58893;53.130;8.158;2023-04-25T13:23:35;13.70;50.80
71188;DHT22;58893;53.130;8.158;2023-04-25T13:26:01;13.70;50.10
71188;DHT22;58893;53.130;8.158;2023-04-25T13:28:27;13.70;48.90
71188;DHT22;58893;53.130;8.158;2023-04-25T13:30:53;13.60;48.30
71188;DHT22;58893;53.130;8.158;2023-04-25T13:33:19;13.60;47.30
71188;DHT22;58893;53.130;8.158;2023-04-25T13:35:46;13.60;46.70
71188;DHT22;58893;53.130;8.158;2023-04-25T13:38:15;13.50;47.40
71188;DHT22;58893;53.130;8.158;2023-04-25T13:40:40;13.60;48.80
71188;DHT22;58893;53.130;8.158;2023-04-25T13:43:06;13.50;50.60
71188;DHT22;58893;53.130;8.158;2023-04-25T13:45:32;13.50;51.40
71188;DHT22;58893;53.130;8.158;2023-04-25T13:47:57;13.50;51.30
71188;DHT22;58893;53.130;8.158;2023-04-25T13:50:23;13.50;51.20
71188;DHT22;58893;53.130;8.158;2023-04-25T13:52:49;13.50;50.80
71188;DHT22;58893;53.130;8.158;2023-04-25T13:55:15;13.50;51.30
71188;DHT22;58893;53.130;8.158;2023-04-25T13:57:40;13.40;50.70
71188;DHT22;58893;53.130;8.158;2023-04-25T14:00:06;13.40;50.50
71188;DHT22;58893;53.130;8.158;2023-04-25T14:02:38;13.30;49.80
71188;DHT22;58893;53.130;8.158;2023-04-25T14:05:04;13.30;49.80
71188;DHT22;58893;53.130;8.158;2023-04-25T14:07:30;13.30;49.80
71188;DHT22;58893;53.130;8.158;2023-04-25T14:09:56;13.30;48.80
71188;DHT22;58893;53.130;8.158;2023-04-25T14:12:25;13.20;48.40
71188;DHT22;58893;53.130;8.158;2023-04-25T14:14:51;13.30;48.10
71188;DHT22;58893;53.130;8.158;2023-04-25T14:17:18;13.20;48.60
71188;DHT22;58893;53.130;8.158;2023-04-25T14:19:44;13.20;48.70
71188;DHT22;58893;53.130;8.158;2023-04-25T14:22:11;13.20;49.30
71188;DHT22;58893;53.130;8.158;2023-04-25T14:24:37;13.20;49.60
71188;DHT22;58893;53.130;8.158;2023-04-25T14:27:03;13.20;50.20
71188;DHT22;58893;53.130;8.158;2023-04-25T14:29:29;13.30;49.80
71188;DHT22;58893;53.130;8.158;2023-04-25T14:31:55;13.30;50.20
71188;DHT22;58893;53.130;8.158;2023-04-25T14:34:22;13.20;50.50
71188;DHT22;58893;53.130;8.158;2023-04-25T14:36:48;13.30;50.00
71188;DHT22;58893;53.130;8.158;2023-04-25T14:39:14;13.20;48.80
71188;DHT22;58893;53.130;8.158;2023-04-25T14:41:40;13.20;48.80
71188;DHT22;58893;53.130;8.158;2023-04-25T14:44:05;13.20;48.80
71188;DHT22;58893;53.130;8.158;2023-04-25T14:46:31;13.10;49.00
71188;DHT22;58893;53.130;8.158;2023-04-25T14:48:57;13.10;48.80
71188;DHT22;58893;53.130;8.158;2023-04-25T14:51:23;13.10;49.20
71188;DHT22;58893;53.130;8.158;2023-04-25T14:53:48;13.10;50.00
71188;DHT22;58893;53.130;8.158;2023-04-25T14:56:14;13.10;50.70
71188;DHT22;58893;53.130;8.158;2023-04-25T14:58:40;13.10;51.20
71188;DHT22;58893;53.130;8.158;2023-04-25T15:01:06;13.10;50.20
71188;DHT22;58893;53.130;8.158;2023-04-25T15:03:32;13.10;49.80
71188;DHT22;58893;53.130;8.158;2023-04-25T15:05:57;13.00;49.60
71188;DHT22;58893;53.130;8.158;2023-04-25T15:08:23;13.00;49.20
71188;DHT22;58893;53.130;8.158;2023-04-25T15:10:49;12.90;48.20
71188;DHT22;58893;53.130;8.158;2023-04-25T15:13:17;13.00;48.00
71188;DHT22;58893;53.130;8.158;2023-04-25T15:15:43;12.90;48.00
71188;DHT22;58893;53.130;8.158;2023-04-25T15:18:08;12.90;48.60
71188;DHT22;58893;53.130;8.158;2023-04-25T15:20:34;12.90;48.00
71188;DHT22;58893;53.130;8.158;2023-04-25T15:23:00;12.80;48.00
71188;DHT22;58893;53.130;8.158;2023-04-25T15:25:28;12.80;47.70
71188;DHT22;58893;53.130;8.158;2023-04-25T15:27:54;12.80;47.20
71188;DHT22;58893;53.130;8.158;2023-04-25T15:30:20;12.90;47.50
71188;DHT22;58893;53.130;8.158;2023-04-25T15:32:46;12.90;48.30
71188;DHT22;58893;53.130;8.158;2023-04-25T15:35:12;12.90;47.80